RYL22 FQMA-FQPO
Flight info
| Callsign | RYL22 |
|---|---|
| Flight time | 0h 24m |
| Altitude | 9000 |
| Route | FQPO |
| Aircraft | C208/L-SDFGR/C |
Departure
| Time | 2026-04-21 19:10 |
|---|---|
| Airport | Maputo Airport (FQMA) |
Arrival
| Time | 2026-04-21 19:34 |
|---|---|
| Airport | Ponta do Ouro Airport (FQPO) |
| Time | Latitude | Longitude | Altitude | Speed | Heading |
|---|---|---|---|---|---|
| 2026-04-21 19:04 | -25.92522 | 32.57309 | 137 ft | 0 kts | 294° |
| 2026-04-21 19:08 | -25.92519 | 32.57303 | 137 ft | 2 kts | 294° |
| 2026-04-21 19:08 | -25.92502 | 32.57254 | 135 ft | 9 kts | 278° |
| 2026-04-21 19:08 | -25.92523 | 32.57191 | 134 ft | 8 kts | 238° |
| 2026-04-21 19:09 | -25.92515 | 32.57132 | 133 ft | 8 kts | 298° |
| 2026-04-21 19:09 | -25.92481 | 32.57067 | 131 ft | 11 kts | 298° |
| 2026-04-21 19:09 | -25.92441 | 32.57040 | 131 ft | 7 kts | 22° |
| 2026-04-21 19:09 | -25.92367 | 32.57085 | 131 ft | 23 kts | 28° |
| 2026-04-21 19:10 | -25.91974 | 32.57323 | 130 ft | 100 kts | 28° |
| 2026-04-21 19:10 | -25.91248 | 32.57767 | 308 ft | 128 kts | 29° |
| 2026-04-21 19:10 | -25.90466 | 32.58241 | 657 ft | 133 kts | 28° |
| 2026-04-21 19:10 | -25.89637 | 32.58738 | 1025 ft | 137 kts | 28° |
| 2026-04-21 19:11 | -25.88856 | 32.59316 | 1395 ft | 137 kts | 53° |
| 2026-04-21 19:11 | -25.88583 | 32.60287 | 1770 ft | 133 kts | 99° |
| 2026-04-21 19:11 | -25.88982 | 32.61158 | 2147 ft | 127 kts | 143° |
| 2026-04-21 19:11 | -25.89792 | 32.61427 | 2521 ft | 124 kts | 187° |
| 2026-04-21 19:12 | -25.90348 | 32.61302 | 2768 ft | 124 kts | 194° |
| 2026-04-21 19:12 | -25.91442 | 32.60976 | 3255 ft | 123 kts | 194° |
| 2026-04-21 19:12 | -25.92273 | 32.60722 | 3620 ft | 123 kts | 194° |
| 2026-04-21 19:12 | -25.93097 | 32.60469 | 3977 ft | 123 kts | 194° |
| 2026-04-21 19:13 | -25.93920 | 32.60218 | 4329 ft | 123 kts | 194° |
| 2026-04-21 19:13 | -25.94739 | 32.59967 | 4674 ft | 123 kts | 194° |
| 2026-04-21 19:13 | -25.95561 | 32.59716 | 5016 ft | 123 kts | 194° |
| 2026-04-21 19:13 | -25.96386 | 32.59465 | 5355 ft | 123 kts | 193° |
| 2026-04-21 19:14 | -25.97215 | 32.59239 | 5687 ft | 123 kts | 187° |
| 2026-04-21 19:14 | -25.98052 | 32.59196 | 6011 ft | 122 kts | 176° |
| 2026-04-21 19:14 | -25.98891 | 32.59297 | 6335 ft | 122 kts | 170° |
| 2026-04-21 19:14 | -25.99725 | 32.59473 | 6657 ft | 122 kts | 167° |
| 2026-04-21 19:15 | -26.00548 | 32.59682 | 6973 ft | 122 kts | 165° |
| 2026-04-21 19:15 | -26.01363 | 32.59905 | 7283 ft | 122 kts | 165° |
| 2026-04-21 19:15 | -26.02178 | 32.60137 | 7590 ft | 122 kts | 164° |
| 2026-04-21 19:15 | -26.02997 | 32.60374 | 7895 ft | 122 kts | 164° |
| 2026-04-21 19:16 | -26.03815 | 32.60612 | 8195 ft | 122 kts | 163° |
| 2026-04-21 19:16 | -26.04631 | 32.60850 | 8486 ft | 119 kts | 163° |
| 2026-04-21 19:16 | -26.05415 | 32.61078 | 8741 ft | 116 kts | 163° |
| 2026-04-21 19:16 | -26.06209 | 32.61311 | 8868 ft | 124 kts | 163° |
| 2026-04-21 19:17 | -26.08068 | 32.61852 | 8884 ft | 149 kts | 164° |
| 2026-04-21 19:17 | -26.09088 | 32.62149 | 8882 ft | 156 kts | 164° |
| 2026-04-21 19:17 | -26.10165 | 32.62462 | 8881 ft | 161 kts | 164° |
| 2026-04-21 19:18 | -26.11251 | 32.62779 | 8881 ft | 164 kts | 164° |
| 2026-04-21 19:18 | -26.12369 | 32.63106 | 8880 ft | 166 kts | 164° |
| 2026-04-21 19:18 | -26.13493 | 32.63435 | 8881 ft | 167 kts | 165° |
| 2026-04-21 19:18 | -26.14574 | 32.63753 | 9110 ft | 156 kts | 164° |
| 2026-04-21 19:19 | -26.15628 | 32.64062 | 9146 ft | 160 kts | 164° |
| 2026-04-21 19:19 | -26.16713 | 32.64379 | 9150 ft | 163 kts | 164° |
| 2026-04-21 19:19 | -26.17827 | 32.64706 | 9150 ft | 166 kts | 164° |
| 2026-04-21 19:19 | -26.18944 | 32.65033 | 9150 ft | 168 kts | 164° |
| 2026-04-21 19:20 | -26.20077 | 32.65365 | 9150 ft | 169 kts | 164° |
| 2026-04-21 19:20 | -26.21214 | 32.65699 | 9149 ft | 170 kts | 164° |
| 2026-04-21 19:20 | -26.22352 | 32.66032 | 9149 ft | 170 kts | 164° |
| 2026-04-21 19:20 | -26.23489 | 32.66366 | 9149 ft | 170 kts | 164° |
| 2026-04-21 19:21 | -26.24642 | 32.66705 | 9149 ft | 171 kts | 164° |
| 2026-04-21 19:21 | -26.25790 | 32.67042 | 9149 ft | 171 kts | 164° |
| 2026-04-21 19:21 | -26.26935 | 32.67378 | 9149 ft | 171 kts | 164° |
| 2026-04-21 19:21 | -26.28095 | 32.67719 | 9149 ft | 171 kts | 164° |
| 2026-04-21 19:22 | -26.29228 | 32.68052 | 9149 ft | 171 kts | 164° |
| 2026-04-21 19:22 | -26.30390 | 32.68393 | 9149 ft | 171 kts | 164° |
| 2026-04-21 19:22 | -26.31537 | 32.68731 | 9149 ft | 171 kts | 164° |
| 2026-04-21 19:22 | -26.32686 | 32.69068 | 9149 ft | 171 kts | 164° |
| 2026-04-21 19:23 | -26.33833 | 32.69406 | 9149 ft | 171 kts | 164° |
| 2026-04-21 19:23 | -26.34977 | 32.69742 | 9149 ft | 171 kts | 164° |
| 2026-04-21 19:23 | -26.36135 | 32.70083 | 9149 ft | 171 kts | 164° |
| 2026-04-21 19:23 | -26.37287 | 32.70422 | 9149 ft | 171 kts | 164° |
| 2026-04-21 19:24 | -26.38431 | 32.70758 | 9149 ft | 171 kts | 164° |
| 2026-04-21 19:24 | -26.39571 | 32.71094 | 9149 ft | 171 kts | 164° |
| 2026-04-21 19:24 | -26.40726 | 32.71434 | 9149 ft | 171 kts | 164° |
| 2026-04-21 19:24 | -26.41870 | 32.71771 | 9149 ft | 171 kts | 164° |
| 2026-04-21 19:25 | -26.43026 | 32.72111 | 9149 ft | 171 kts | 164° |
| 2026-04-21 19:25 | -26.44184 | 32.72452 | 9149 ft | 171 kts | 164° |
| 2026-04-21 19:25 | -26.45325 | 32.72789 | 9149 ft | 171 kts | 164° |
| 2026-04-21 19:25 | -26.46468 | 32.73125 | 9121 ft | 173 kts | 164° |
| 2026-04-21 19:26 | -26.47657 | 32.73474 | 8740 ft | 175 kts | 165° |
| 2026-04-21 19:26 | -26.48824 | 32.73818 | 8367 ft | 175 kts | 165° |
| 2026-04-21 19:26 | -26.50011 | 32.74169 | 7987 ft | 175 kts | 165° |
| 2026-04-21 19:26 | -26.51180 | 32.74514 | 7612 ft | 174 kts | 165° |
| 2026-04-21 19:27 | -26.52339 | 32.74855 | 7240 ft | 174 kts | 165° |
| 2026-04-21 19:27 | -26.53512 | 32.75201 | 6863 ft | 174 kts | 165° |
| 2026-04-21 19:27 | -26.54657 | 32.75540 | 6539 ft | 171 kts | 165° |
| 2026-04-21 19:27 | -26.55802 | 32.75877 | 6212 ft | 169 kts | 165° |
| 2026-04-21 19:28 | -26.56925 | 32.76209 | 5888 ft | 168 kts | 165° |
| 2026-04-21 19:28 | -26.58051 | 32.76541 | 5562 ft | 167 kts | 165° |
| 2026-04-21 19:28 | -26.59169 | 32.76872 | 5237 ft | 167 kts | 165° |
| 2026-04-21 19:28 | -26.60291 | 32.77203 | 4910 ft | 166 kts | 166° |
| 2026-04-21 19:29 | -26.61404 | 32.77532 | 4585 ft | 166 kts | 166° |
| 2026-04-21 19:29 | -26.62522 | 32.77862 | 4258 ft | 166 kts | 166° |
| 2026-04-21 19:29 | -26.63633 | 32.78191 | 3932 ft | 166 kts | 166° |
| 2026-04-21 19:29 | -26.64747 | 32.78520 | 3606 ft | 166 kts | 166° |
| 2026-04-21 19:30 | -26.65867 | 32.78852 | 3277 ft | 165 kts | 166° |
| 2026-04-21 19:30 | -26.66975 | 32.79179 | 2953 ft | 165 kts | 166° |
| 2026-04-21 19:30 | -26.68076 | 32.79504 | 2629 ft | 165 kts | 166° |
| 2026-04-21 19:30 | -26.69183 | 32.79832 | 2304 ft | 165 kts | 166° |
| 2026-04-21 19:31 | -26.70268 | 32.80154 | 2164 ft | 160 kts | 166° |
| 2026-04-21 19:31 | -26.71344 | 32.80474 | 2097 ft | 160 kts | 166° |
| 2026-04-21 19:31 | -26.72441 | 32.80797 | 1850 ft | 169 kts | 166° |
| 2026-04-21 19:31 | -26.73599 | 32.81139 | 1600 ft | 173 kts | 166° |
| 2026-04-21 19:32 | -26.74758 | 32.81482 | 1387 ft | 174 kts | 166° |
| 2026-04-21 19:32 | -26.75924 | 32.81827 | 1183 ft | 170 kts | 166° |
| 2026-04-21 19:32 | -26.77034 | 32.82155 | 925 ft | 158 kts | 166° |
| 2026-04-21 19:32 | -26.78042 | 32.82439 | 838 ft | 143 kts | 167° |
| 2026-04-21 19:33 | -26.78677 | 32.82655 | 853 ft | 141 kts | 159° |
| 2026-04-21 19:33 | -26.79750 | 32.83329 | 714 ft | 130 kts | 145° |
| 2026-04-21 19:33 | -26.80411 | 32.83897 | 673 ft | 98 kts | 148° |
| 2026-04-21 19:33 | -26.81008 | 32.84119 | 603 ft | 95 kts | 174° |
| 2026-04-21 19:34 | -26.81654 | 32.84135 | 463 ft | 92 kts | 182° |
| 2026-04-21 19:34 | -26.82245 | 32.84010 | 200 ft | 83 kts | 199° |
| 2026-04-21 19:34 | -26.82729 | 32.83821 | 97 ft | 62 kts | 196° |
| 2026-04-21 19:34 | -26.83053 | 32.83698 | 99 ft | 33 kts | 200° |
| 2026-04-21 19:35 | -26.83139 | 32.83681 | 99 ft | 6 kts | 1° |
| 2026-04-21 19:35 | -26.82967 | 32.83736 | 99 ft | 20 kts | 19° |
| 2026-04-21 19:35 | -26.82811 | 32.83796 | 97 ft | 26 kts | 18° |
| 2026-04-21 19:36 | -26.82650 | 32.83863 | 96 ft | 23 kts | 28° |
| 2026-04-21 19:36 | -26.82539 | 32.83910 | 94 ft | 12 kts | 66° |
| 2026-04-21 19:36 | -26.82557 | 32.83988 | 92 ft | 8 kts | 109° |
| 2026-04-21 19:36 | -26.82574 | 32.84046 | 91 ft | 7 kts | 108° |
| 2026-04-21 19:37 | -26.82567 | 32.84092 | 89 ft | 2 kts | 101° |
| 2026-04-21 19:37 | -26.82567 | 32.84094 | 89 ft | 0 kts | 105° |
| 2026-04-21 19:45 | -26.82576 | 32.84099 | 89 ft | 2 kts | 200° |
| 2026-04-21 19:46 | -26.82576 | 32.84055 | 90 ft | 11 kts | 279° |
| 2026-04-21 19:46 | -26.82543 | 32.83948 | 93 ft | 11 kts | 291° |
| 2026-04-21 19:46 | -26.82550 | 32.83894 | 94 ft | 7 kts | 199° |
| 2026-04-21 19:46 | -26.82888 | 32.83766 | 99 ft | 103 kts | 199° |
| 2026-04-21 19:47 | -26.83628 | 32.83440 | 595 ft | 119 kts | 205° |
| 2026-04-21 19:47 | -26.84285 | 32.83119 | 1463 ft | 103 kts | 197° |
| 2026-04-21 19:47 | -26.84974 | 32.82748 | 2001 ft | 114 kts | 218° |
| 2026-04-21 19:47 | -26.85639 | 32.82496 | 2709 ft | 111 kts | 171° |
| 2026-04-21 19:48 | -26.86318 | 32.82988 | 3226 ft | 118 kts | 143° |
| 2026-04-21 19:48 | -26.87116 | 32.83199 | 3656 ft | 128 kts | 186° |
| 2026-04-21 19:48 | -26.88005 | 32.83240 | 4019 ft | 134 kts | 159° |
| 2026-04-21 19:48 | -26.88660 | 32.83966 | 4374 ft | 139 kts | 117° |
| 2026-04-21 19:49 | -26.88719 | 32.84973 | 4719 ft | 129 kts | 75° |
| 2026-04-21 19:49 | -26.88180 | 32.85730 | 5075 ft | 125 kts | 32° |
| 2026-04-21 19:49 | -26.87357 | 32.85886 | 5433 ft | 122 kts | 350° |
| 2026-04-21 19:49 | -26.86575 | 32.85609 | 5804 ft | 118 kts | 342° |
| 2026-04-21 19:50 | -26.86040 | 32.85394 | 6024 ft | 125 kts | 342° |
| 2026-04-21 19:50 | -26.84935 | 32.84974 | 6527 ft | 129 kts | 344° |
| 2026-04-21 19:50 | -26.84072 | 32.84670 | 6905 ft | 131 kts | 345° |
| 2026-04-21 19:50 | -26.83202 | 32.84378 | 7281 ft | 132 kts | 346° |
| 2026-04-21 19:51 | -26.82332 | 32.84096 | 7653 ft | 132 kts | 346° |
| 2026-04-21 19:51 | -26.81427 | 32.83810 | 7923 ft | 140 kts | 347° |
| 2026-04-21 19:51 | -26.80432 | 32.83499 | 7961 ft | 157 kts | 346° |
| 2026-04-21 19:51 | -26.79348 | 32.83161 | 7963 ft | 167 kts | 346° |
| 2026-04-21 19:52 | -26.78211 | 32.82812 | 7961 ft | 172 kts | 346° |
| 2026-04-21 19:52 | -26.77045 | 32.82458 | 7961 ft | 174 kts | 346° |
| 2026-04-21 19:52 | -26.75865 | 32.82103 | 7960 ft | 175 kts | 346° |
| 2026-04-21 19:52 | -26.74684 | 32.81748 | 7960 ft | 176 kts | 346° |
| 2026-04-21 19:53 | -26.73505 | 32.81395 | 7960 ft | 176 kts | 346° |
| 2026-04-21 19:53 | -26.72312 | 32.81038 | 7960 ft | 176 kts | 346° |
| 2026-04-21 19:53 | -26.71127 | 32.80684 | 7960 ft | 176 kts | 346° |
| 2026-04-21 19:53 | -26.69945 | 32.80331 | 7960 ft | 176 kts | 346° |
| 2026-04-21 19:54 | -26.68755 | 32.79976 | 7960 ft | 176 kts | 346° |
| 2026-04-21 19:54 | -26.67567 | 32.79622 | 7960 ft | 176 kts | 346° |
| 2026-04-21 19:54 | -26.66386 | 32.79270 | 7960 ft | 176 kts | 346° |
| 2026-04-21 19:54 | -26.65201 | 32.78917 | 7960 ft | 175 kts | 346° |
| 2026-04-21 19:55 | -26.64043 | 32.78572 | 7959 ft | 171 kts | 346° |
| 2026-04-21 19:55 | -26.62894 | 32.78229 | 7959 ft | 170 kts | 346° |
| 2026-04-21 19:55 | -26.61764 | 32.77892 | 7960 ft | 169 kts | 346° |
| 2026-04-21 19:55 | -26.60619 | 32.77551 | 7960 ft | 169 kts | 346° |
| 2026-04-21 19:56 | -26.59482 | 32.77213 | 7960 ft | 169 kts | 346° |
| 2026-04-21 19:56 | -26.58358 | 32.76878 | 7960 ft | 169 kts | 346° |
| 2026-04-21 19:56 | -26.57226 | 32.76541 | 7960 ft | 168 kts | 346° |
| 2026-04-21 19:56 | -26.56086 | 32.76202 | 7960 ft | 168 kts | 346° |
| 2026-04-21 19:57 | -26.54968 | 32.75869 | 7960 ft | 168 kts | 346° |
| 2026-04-21 19:57 | -26.53827 | 32.75530 | 7960 ft | 168 kts | 346° |
| 2026-04-21 19:57 | -26.52701 | 32.75195 | 7960 ft | 168 kts | 346° |
| 2026-04-21 19:57 | -26.51566 | 32.74858 | 7960 ft | 168 kts | 346° |
| 2026-04-21 19:58 | -26.50428 | 32.74520 | 7960 ft | 168 kts | 346° |
| 2026-04-21 19:58 | -26.49305 | 32.74186 | 7960 ft | 168 kts | 346° |
| 2026-04-21 19:58 | -26.48163 | 32.73846 | 7960 ft | 168 kts | 346° |
| 2026-04-21 19:58 | -26.47032 | 32.73510 | 7960 ft | 168 kts | 346° |
| 2026-04-21 19:59 | -26.45898 | 32.73174 | 7960 ft | 168 kts | 346° |
| 2026-04-21 19:59 | -26.44776 | 32.72841 | 7960 ft | 168 kts | 346° |
| 2026-04-21 19:59 | -26.43636 | 32.72502 | 7960 ft | 168 kts | 346° |
| 2026-04-21 19:59 | -26.42512 | 32.72169 | 7960 ft | 168 kts | 346° |
| 2026-04-21 20:00 | -26.41379 | 32.71832 | 7960 ft | 168 kts | 346° |
| 2026-04-21 20:00 | -26.40237 | 32.71493 | 7960 ft | 168 kts | 346° |
| 2026-04-21 20:00 | -26.39117 | 32.71161 | 7960 ft | 168 kts | 346° |
| 2026-04-21 20:00 | -26.37983 | 32.70824 | 7960 ft | 168 kts | 346° |
| 2026-04-21 20:01 | -26.36850 | 32.70487 | 7960 ft | 168 kts | 346° |
| 2026-04-21 20:01 | -26.35723 | 32.70152 | 7960 ft | 168 kts | 346° |
| 2026-04-21 20:01 | -26.34578 | 32.69813 | 7960 ft | 168 kts | 346° |
| 2026-04-21 20:01 | -26.33456 | 32.69480 | 7960 ft | 168 kts | 346° |
| 2026-04-21 20:02 | -26.32315 | 32.69142 | 7960 ft | 168 kts | 346° |
| 2026-04-21 20:02 | -26.31194 | 32.68810 | 7960 ft | 168 kts | 346° |
| 2026-04-21 20:02 | -26.30053 | 32.68472 | 7960 ft | 168 kts | 346° |
| 2026-04-21 20:02 | -26.28923 | 32.68138 | 7960 ft | 168 kts | 346° |
| 2026-04-21 20:03 | -26.27795 | 32.67804 | 7960 ft | 168 kts | 346° |
| 2026-04-21 20:03 | -26.26652 | 32.67466 | 7960 ft | 168 kts | 346° |
| 2026-04-21 20:03 | -26.25518 | 32.67130 | 7960 ft | 168 kts | 346° |
| 2026-04-21 20:03 | -26.24390 | 32.66797 | 7890 ft | 173 kts | 347° |
| 2026-04-21 20:04 | -26.23234 | 32.66457 | 7540 ft | 172 kts | 346° |
| 2026-04-21 20:04 | -26.22078 | 32.66114 | 7188 ft | 171 kts | 346° |
| 2026-04-21 20:04 | -26.20942 | 32.65778 | 6839 ft | 170 kts | 346° |
| 2026-04-21 20:04 | -26.19808 | 32.65443 | 6490 ft | 169 kts | 346° |
| 2026-04-21 20:05 | -26.18667 | 32.65106 | 6137 ft | 169 kts | 346° |
| 2026-04-21 20:05 | -26.17524 | 32.64771 | 5787 ft | 171 kts | 346° |
| 2026-04-21 20:05 | -26.16377 | 32.64431 | 5439 ft | 172 kts | 346° |
| 2026-04-21 20:05 | -26.15217 | 32.64087 | 5088 ft | 172 kts | 346° |
| 2026-04-21 20:06 | -26.14067 | 32.63747 | 4741 ft | 172 kts | 346° |
| 2026-04-21 20:06 | -26.12908 | 32.63405 | 4391 ft | 172 kts | 346° |
| 2026-04-21 20:06 | -26.11762 | 32.63067 | 4045 ft | 172 kts | 346° |
| 2026-04-21 20:06 | -26.10614 | 32.62728 | 3697 ft | 172 kts | 346° |
| 2026-04-21 20:07 | -26.09453 | 32.62386 | 3345 ft | 172 kts | 346° |
| 2026-04-21 20:07 | -26.08307 | 32.62048 | 2997 ft | 171 kts | 346° |
| 2026-04-21 20:07 | -26.07157 | 32.61709 | 2648 ft | 171 kts | 346° |
| 2026-04-21 20:07 | -26.06013 | 32.61371 | 2299 ft | 171 kts | 346° |
| 2026-04-21 20:08 | -26.04879 | 32.61036 | 2107 ft | 162 kts | 346° |
| 2026-04-21 20:08 | -26.03815 | 32.60721 | 2086 ft | 159 kts | 345° |
| 2026-04-21 20:08 | -26.02732 | 32.60401 | 2085 ft | 160 kts | 345° |
| 2026-04-21 20:08 | -26.01780 | 32.59801 | 2085 ft | 161 kts | 314° |
| 2026-04-21 20:09 | -26.01013 | 32.58890 | 2085 ft | 162 kts | 312° |
| 2026-04-21 20:09 | -26.00265 | 32.57964 | 2084 ft | 158 kts | 311° |
| 2026-04-21 20:09 | -25.99588 | 32.57131 | 2068 ft | 126 kts | 313° |
| 2026-04-21 20:09 | -25.99035 | 32.56479 | 1905 ft | 107 kts | 312° |
| 2026-04-21 20:10 | -25.98588 | 32.56021 | 1854 ft | 76 kts | 330° |
| 2026-04-21 20:10 | -25.98026 | 32.55754 | 1768 ft | 89 kts | 341° |
| 2026-04-21 20:10 | -25.97462 | 32.55543 | 1704 ft | 89 kts | 343° |
| 2026-04-21 20:10 | -25.96836 | 32.55385 | 1627 ft | 94 kts | 352° |
| 2026-04-21 20:11 | -25.96173 | 32.55294 | 1477 ft | 92 kts | 359° |
| 2026-04-21 20:11 | -25.95598 | 32.55348 | 1222 ft | 79 kts | 11° |
| 2026-04-21 20:11 | -25.95086 | 32.55487 | 968 ft | 74 kts | 22° |
| 2026-04-21 20:11 | -25.94584 | 32.55727 | 816 ft | 86 kts | 27° |
| 2026-04-21 20:12 | -25.94047 | 32.56046 | 665 ft | 88 kts | 32° |
| 2026-04-21 20:12 | -25.93511 | 32.56386 | 489 ft | 88 kts | 31° |
| 2026-04-21 20:12 | -25.93156 | 32.56602 | 371 ft | 86 kts | 32° |
| 2026-04-21 20:12 | -25.92495 | 32.57006 | 156 ft | 73 kts | 30° |
| 2026-04-21 20:13 | -25.92096 | 32.57257 | 132 ft | 58 kts | 28° |
| 2026-04-21 20:13 | -25.91774 | 32.57446 | 130 ft | 42 kts | 29° |
| 2026-04-21 20:13 | -25.91540 | 32.57589 | 132 ft | 36 kts | 28° |
| 2026-04-21 20:13 | -25.91304 | 32.57734 | 135 ft | 41 kts | 29° |
| 2026-04-21 20:14 | -25.91094 | 32.57862 | 137 ft | 24 kts | 29° |
| 2026-04-21 20:14 | -25.91018 | 32.57966 | 139 ft | 18 kts | 130° |
| 2026-04-21 20:14 | -25.91133 | 32.58008 | 139 ft | 19 kts | 166° |
| 2026-04-21 20:14 | -25.91257 | 32.57970 | 138 ft | 20 kts | 207° |
| 2026-04-21 20:15 | -25.91394 | 32.57887 | 137 ft | 25 kts | 208° |
| 2026-04-21 20:15 | -25.91564 | 32.57783 | 135 ft | 30 kts | 208° |
| 2026-04-21 20:15 | -25.91752 | 32.57669 | 133 ft | 29 kts | 209° |
| 2026-04-21 20:15 | -25.91916 | 32.57567 | 133 ft | 25 kts | 209° |
| 2026-04-21 20:16 | -25.92064 | 32.57478 | 133 ft | 22 kts | 207° |
| 2026-04-21 20:16 | -25.92206 | 32.57394 | 133 ft | 24 kts | 209° |
| 2026-04-21 20:16 | -25.92359 | 32.57298 | 134 ft | 25 kts | 208° |
| 2026-04-21 20:16 | -25.92448 | 32.57243 | 134 ft | 8 kts | 198° |
| 2026-04-21 20:17 | -25.92484 | 32.57266 | 135 ft | 5 kts | 117° |
| 2026-04-21 20:17 | -25.92496 | 32.57290 | 136 ft | 2 kts | 119° |
| 2026-04-21 20:17 | -25.92504 | 32.57306 | 137 ft | 3 kts | 119° |
| 2026-04-21 20:17 | -25.92518 | 32.57316 | 137 ft | 3 kts | 173° |
| 2026-04-21 20:18 | -25.92531 | 32.57312 | 137 ft | 2 kts | 218° |
| 2026-04-21 20:18 | -25.92532 | 32.57310 | 137 ft | 0 kts | 219° |
| 2026-04-21 20:26 | -25.92538 | 32.57302 | 136 ft | 4 kts | 240° |
| 2026-04-21 20:26 | -25.92527 | 32.57253 | 136 ft | 9 kts | 289° |
| 2026-04-21 20:27 | -25.92520 | 32.57166 | 134 ft | 11 kts | 275° |
| 2026-04-21 20:27 | -25.92496 | 32.57094 | 132 ft | 8 kts | 300° |
| 2026-04-21 20:27 | -25.92467 | 32.57042 | 131 ft | 6 kts | 320° |
| 2026-04-21 20:27 | -25.92433 | 32.57043 | 131 ft | 4 kts | 28° |
| 2026-04-21 20:28 | -25.92381 | 32.57077 | 131 ft | 15 kts | 28° |
| 2026-04-21 20:28 | -25.92243 | 32.57160 | 131 ft | 34 kts | 27° |
| 2026-04-21 20:28 | -25.91794 | 32.57433 | 130 ft | 103 kts | 28° |
| 2026-04-21 20:28 | -25.91073 | 32.57879 | 299 ft | 128 kts | 27° |
| 2026-04-21 20:29 | -25.90280 | 32.58357 | 680 ft | 127 kts | 25° |
| 2026-04-21 20:29 | -25.89680 | 32.59054 | 1050 ft | 133 kts | 71° |
| 2026-04-21 20:29 | -25.89709 | 32.60022 | 1347 ft | 127 kts | 117° |
| 2026-04-21 20:29 | -25.90333 | 32.60663 | 1628 ft | 122 kts | 165° |
| 2026-04-21 20:30 | -25.91142 | 32.60647 | 1893 ft | 118 kts | 196° |
| 2026-04-21 20:30 | -25.91939 | 32.60408 | 2156 ft | 118 kts | 198° |
| 2026-04-21 20:30 | -25.92716 | 32.60160 | 2411 ft | 118 kts | 198° |
| 2026-04-21 20:30 | -25.93499 | 32.59910 | 2667 ft | 118 kts | 198° |
| 2026-04-21 20:31 | -25.94291 | 32.59656 | 2923 ft | 117 kts | 198° |
| 2026-04-21 20:31 | -25.95069 | 32.59408 | 3172 ft | 117 kts | 198° |
| 2026-04-21 20:31 | -25.95848 | 32.59159 | 3420 ft | 117 kts | 198° |
| 2026-04-21 20:31 | -25.96609 | 32.58975 | 3753 ft | 108 kts | 188° |
| 2026-04-21 20:32 | -25.97324 | 32.58962 | 4111 ft | 98 kts | 179° |
| 2026-04-21 20:32 | -25.97956 | 32.59037 | 4464 ft | 86 kts | 174° |
| 2026-04-21 20:32 | -25.98513 | 32.59142 | 4768 ft | 77 kts | 172° |
| 2026-04-21 20:32 | -25.99011 | 32.59260 | 5006 ft | 74 kts | 170° |
| 2026-04-21 20:33 | -25.99541 | 32.59298 | 5188 ft | 76 kts | 188° |
| 2026-04-21 20:33 | -26.00056 | 32.59311 | 5398 ft | 76 kts | 177° |
| 2026-04-21 20:33 | -26.00567 | 32.59409 | 5597 ft | 78 kts | 164° |
| 2026-04-21 20:33 | -26.01083 | 32.59642 | 5773 ft | 83 kts | 160° |
| 2026-04-21 20:34 | -26.01652 | 32.59875 | 5915 ft | 93 kts | 162° |
| 2026-04-21 20:34 | -26.02297 | 32.60109 | 6055 ft | 102 kts | 163° |
| 2026-04-21 20:34 | -26.03010 | 32.60345 | 6192 ft | 111 kts | 165° |
| 2026-04-21 20:34 | -26.03781 | 32.60585 | 6325 ft | 118 kts | 165° |
| 2026-04-21 20:35 | -26.04600 | 32.60832 | 6472 ft | 123 kts | 165° |
| 2026-04-21 20:35 | -26.05418 | 32.61074 | 6703 ft | 119 kts | 165° |
| 2026-04-21 20:35 | -26.06200 | 32.61305 | 6945 ft | 115 kts | 165° |
| 2026-04-21 20:35 | -26.06966 | 32.61530 | 7190 ft | 111 kts | 165° |
| 2026-04-21 20:36 | -26.07699 | 32.61746 | 7433 ft | 108 kts | 165° |
| 2026-04-21 20:36 | -26.08407 | 32.61954 | 7675 ft | 104 kts | 165° |
| 2026-04-21 20:36 | -26.09098 | 32.62157 | 7914 ft | 100 kts | 165° |
| 2026-04-21 20:36 | -26.09804 | 32.62364 | 7987 ft | 113 kts | 165° |
| 2026-04-21 20:37 | -26.10607 | 32.62598 | 7994 ft | 124 kts | 165° |
| 2026-04-21 20:37 | -26.11485 | 32.62854 | 7995 ft | 136 kts | 165° |
| 2026-04-21 20:37 | -26.12432 | 32.63130 | 7993 ft | 146 kts | 165° |
| 2026-04-21 20:37 | -26.13448 | 32.63426 | 7991 ft | 153 kts | 165° |
| 2026-04-21 20:38 | -26.14490 | 32.63730 | 7989 ft | 157 kts | 165° |
| 2026-04-21 20:38 | -26.15577 | 32.64048 | 7989 ft | 160 kts | 165° |
| 2026-04-21 20:38 | -26.16664 | 32.64366 | 7988 ft | 162 kts | 165° |
| 2026-04-21 20:38 | -26.17752 | 32.64685 | 7988 ft | 163 kts | 165° |
| 2026-04-21 20:39 | -26.18855 | 32.65008 | 7988 ft | 164 kts | 165° |
| 2026-04-21 20:39 | -26.19966 | 32.65334 | 7987 ft | 165 kts | 165° |
| 2026-04-21 20:39 | -26.21072 | 32.65659 | 7987 ft | 165 kts | 165° |
| 2026-04-21 20:39 | -26.22195 | 32.65988 | 7987 ft | 165 kts | 165° |
| 2026-04-21 20:40 | -26.23301 | 32.66313 | 7987 ft | 165 kts | 165° |
| 2026-04-21 20:40 | -26.24411 | 32.66639 | 7987 ft | 166 kts | 165° |
| 2026-04-21 20:40 | -26.25539 | 32.66970 | 7987 ft | 166 kts | 165° |
| 2026-04-21 20:40 | -26.26646 | 32.67295 | 7987 ft | 166 kts | 165° |
| 2026-04-21 20:41 | -26.27768 | 32.67625 | 7987 ft | 166 kts | 165° |
| 2026-04-21 20:41 | -26.28883 | 32.67952 | 7987 ft | 166 kts | 165° |
| 2026-04-21 20:41 | -26.30000 | 32.68281 | 7987 ft | 166 kts | 165° |
| 2026-04-21 20:41 | -26.31113 | 32.68608 | 7987 ft | 166 kts | 165° |
| 2026-04-21 20:42 | -26.32231 | 32.68937 | 7987 ft | 166 kts | 165° |
| 2026-04-21 20:42 | -26.33345 | 32.69264 | 7987 ft | 166 kts | 165° |
| 2026-04-21 20:42 | -26.34457 | 32.69591 | 7987 ft | 166 kts | 165° |
| 2026-04-21 20:42 | -26.35582 | 32.69922 | 7987 ft | 166 kts | 165° |
| 2026-04-21 20:43 | -26.36691 | 32.70248 | 7987 ft | 166 kts | 165° |
| 2026-04-21 20:43 | -26.37801 | 32.70575 | 7987 ft | 166 kts | 165° |
| 2026-04-21 20:43 | -26.38927 | 32.70907 | 7987 ft | 166 kts | 165° |
| 2026-04-21 20:43 | -26.40031 | 32.71231 | 7987 ft | 166 kts | 165° |
| 2026-04-21 20:44 | -26.41159 | 32.71564 | 7987 ft | 166 kts | 165° |
| 2026-04-21 20:44 | -26.42272 | 32.71891 | 7987 ft | 166 kts | 165° |
| 2026-04-21 20:44 | -26.43391 | 32.72221 | 7987 ft | 166 kts | 165° |
| 2026-04-21 20:44 | -26.44505 | 32.72549 | 7987 ft | 166 kts | 165° |
| 2026-04-21 20:45 | -26.45625 | 32.72880 | 7987 ft | 166 kts | 165° |
| 2026-04-21 20:45 | -26.46737 | 32.73208 | 7987 ft | 166 kts | 165° |
| 2026-04-21 20:45 | -26.47862 | 32.73539 | 7910 ft | 169 kts | 165° |
| 2026-04-21 20:45 | -26.48956 | 32.73860 | 7779 ft | 158 kts | 165° |
| 2026-04-21 20:46 | -26.50002 | 32.74169 | 7647 ft | 151 kts | 165° |
| 2026-04-21 20:46 | -26.50990 | 32.74462 | 7518 ft | 145 kts | 165° |
| 2026-04-21 20:46 | -26.51953 | 32.74746 | 7391 ft | 142 kts | 165° |
| 2026-04-21 20:46 | -26.52908 | 32.75029 | 7263 ft | 139 kts | 165° |
| 2026-04-21 20:47 | -26.53839 | 32.75304 | 7138 ft | 140 kts | 165° |
| 2026-04-21 20:47 | -26.54807 | 32.75590 | 7021 ft | 149 kts | 165° |
| 2026-04-21 20:47 | -26.55843 | 32.75895 | 6900 ft | 156 kts | 165° |
| 2026-04-21 20:47 | -26.56895 | 32.76205 | 6779 ft | 160 kts | 165° |
| 2026-04-21 20:48 | -26.57976 | 32.76524 | 6656 ft | 163 kts | 166° |
| 2026-04-21 20:48 | -26.59085 | 32.76851 | 6532 ft | 165 kts | 166° |
| 2026-04-21 20:48 | -26.60194 | 32.77179 | 6407 ft | 166 kts | 166° |
| 2026-04-21 20:48 | -26.61319 | 32.77511 | 6282 ft | 167 kts | 166° |
| 2026-04-21 20:49 | -26.62439 | 32.77842 | 6157 ft | 167 kts | 166° |
| 2026-04-21 20:49 | -26.63564 | 32.78175 | 6032 ft | 167 kts | 166° |
| 2026-04-21 20:49 | -26.64691 | 32.78508 | 5906 ft | 168 kts | 166° |
| 2026-04-21 20:49 | -26.65819 | 32.78842 | 5781 ft | 168 kts | 166° |
| 2026-04-21 20:50 | -26.66941 | 32.79173 | 5655 ft | 168 kts | 166° |
| 2026-04-21 20:50 | -26.68096 | 32.79514 | 5293 ft | 173 kts | 166° |
| 2026-04-21 20:50 | -26.69240 | 32.79853 | 4919 ft | 171 kts | 166° |
| 2026-04-21 20:50 | -26.70398 | 32.80196 | 4539 ft | 171 kts | 166° |
| 2026-04-21 20:51 | -26.71524 | 32.80529 | 4168 ft | 170 kts | 166° |
| 2026-04-21 20:51 | -26.72675 | 32.80870 | 3788 ft | 170 kts | 167° |
| 2026-04-21 20:51 | -26.73809 | 32.81206 | 3413 ft | 170 kts | 167° |
| 2026-04-21 20:51 | -26.74942 | 32.81541 | 3038 ft | 170 kts | 167° |
| 2026-04-21 20:52 | -26.76080 | 32.81879 | 2662 ft | 169 kts | 167° |
| 2026-04-21 20:52 | -26.77188 | 32.82208 | 2280 ft | 160 kts | 167° |
| 2026-04-21 20:52 | -26.78226 | 32.82540 | 1899 ft | 155 kts | 158° |
| 2026-04-21 20:52 | -26.78952 | 32.83371 | 1526 ft | 153 kts | 123° |
| 2026-04-21 20:53 | -26.79624 | 32.84243 | 1209 ft | 144 kts | 155° |
| 2026-04-21 20:53 | -26.80595 | 32.84418 | 745 ft | 144 kts | 184° |
| 2026-04-21 20:53 | -26.81535 | 32.84279 | 458 ft | 118 kts | 197° |
| 2026-04-21 20:53 | -26.82231 | 32.84018 | 217 ft | 96 kts | 201° |
| 2026-04-21 20:54 | -26.82799 | 32.83799 | 98 ft | 73 kts | 202° |
| 2026-04-21 20:54 | -26.83085 | 32.83688 | 100 ft | 21 kts | 202° |
| 2026-04-21 20:54 | -26.83150 | 32.83677 | 100 ft | 9 kts | 16° |
| 2026-04-21 20:54 | -26.83080 | 32.83694 | 99 ft | 13 kts | 17° |
| 2026-04-21 20:55 | -26.82965 | 32.83737 | 99 ft | 21 kts | 18° |
| 2026-04-21 20:55 | -26.82806 | 32.83798 | 97 ft | 27 kts | 18° |
| 2026-04-21 20:55 | -26.82634 | 32.83864 | 96 ft | 18 kts | 19° |
| 2026-04-21 20:55 | -26.82572 | 32.83887 | 95 ft | 5 kts | 18° |
| 2026-04-21 20:56 | -26.82537 | 32.83927 | 93 ft | 11 kts | 102° |
| 2026-04-21 20:56 | -26.82570 | 32.84033 | 91 ft | 13 kts | 109° |
| 2026-04-21 20:56 | -26.82565 | 32.84087 | 89 ft | 1 kts | 105° |
| 2026-04-21 20:56 | -26.82565 | 32.84088 | 89 ft | 0 kts | 105° |
| 2026-04-21 21:02 | -26.82565 | 32.84089 | 89 ft | 0 kts | 113° |
| 2026-04-21 21:02 | -26.82574 | 32.84051 | 91 ft | 13 kts | 285° |
| 2026-04-21 21:02 | -26.82541 | 32.83946 | 93 ft | 9 kts | 290° |
| 2026-04-21 21:03 | -26.82538 | 32.83901 | 94 ft | 2 kts | 227° |
| 2026-04-21 21:03 | -26.82543 | 32.83897 | 94 ft | 0 kts | 200° |
| 2026-04-21 21:03 | -26.82551 | 32.83894 | 95 ft | 17 kts | 199° |
| 2026-04-21 21:04 | -26.83073 | 32.83696 | 201 ft | 116 kts | 200° |
| 2026-04-21 21:04 | -26.83884 | 32.83416 | 666 ft | 134 kts | 199° |
| 2026-04-21 21:04 | -26.84794 | 32.82922 | 1019 ft | 157 kts | 226° |
| 2026-04-21 21:04 | -26.85186 | 32.81818 | 1387 ft | 153 kts | 270° |
| 2026-04-21 21:05 | -26.84780 | 32.80776 | 1751 ft | 149 kts | 314° |
| 2026-04-21 21:05 | -26.83839 | 32.80348 | 2120 ft | 150 kts | 358° |
| 2026-04-21 21:05 | -26.82824 | 32.80555 | 2494 ft | 149 kts | 10° |
| 2026-04-21 21:05 | -26.81808 | 32.80664 | 2868 ft | 147 kts | 357° |
| 2026-04-21 21:06 | -26.80799 | 32.80569 | 3242 ft | 146 kts | 350° |
| 2026-04-21 21:06 | -26.79804 | 32.80372 | 3618 ft | 145 kts | 346° |
| 2026-04-21 21:06 | -26.78810 | 32.80132 | 3997 ft | 145 kts | 345° |
| 2026-04-21 21:06 | -26.77841 | 32.79883 | 4368 ft | 144 kts | 345° |
| 2026-04-21 21:07 | -26.76900 | 32.79636 | 4736 ft | 136 kts | 345° |
| 2026-04-21 21:07 | -26.75993 | 32.79396 | 5110 ft | 131 kts | 346° |
| 2026-04-21 21:07 | -26.75129 | 32.79160 | 5479 ft | 127 kts | 347° |
| 2026-04-21 21:07 | -26.74279 | 32.78936 | 5853 ft | 125 kts | 347° |
| 2026-04-21 21:08 | -26.73443 | 32.78715 | 6227 ft | 122 kts | 347° |
| 2026-04-21 21:08 | -26.72628 | 32.78500 | 6599 ft | 121 kts | 347° |
| 2026-04-21 21:08 | -26.71823 | 32.78286 | 6972 ft | 119 kts | 347° |
| 2026-04-21 21:08 | -26.71024 | 32.78073 | 7347 ft | 117 kts | 347° |
| 2026-04-21 21:09 | -26.70241 | 32.77865 | 7720 ft | 116 kts | 347° |
| 2026-04-21 21:09 | -26.69471 | 32.77660 | 8091 ft | 114 kts | 348° |
| 2026-04-21 21:09 | -26.68652 | 32.77444 | 8246 ft | 131 kts | 348° |
| 2026-04-21 21:09 | -26.67700 | 32.77194 | 8262 ft | 148 kts | 348° |
| 2026-04-21 21:10 | -26.66657 | 32.76920 | 8260 ft | 158 kts | 347° |
| 2026-04-21 21:10 | -26.65571 | 32.76632 | 8259 ft | 162 kts | 347° |
| 2026-04-21 21:10 | -26.64470 | 32.76340 | 8258 ft | 164 kts | 347° |
| 2026-04-21 21:10 | -26.63355 | 32.76045 | 8257 ft | 165 kts | 347° |
| 2026-04-21 21:11 | -26.62227 | 32.75746 | 8257 ft | 166 kts | 347° |
| 2026-04-21 21:11 | -26.61099 | 32.75447 | 8257 ft | 166 kts | 347° |
| 2026-04-21 21:11 | -26.59977 | 32.75149 | 8257 ft | 166 kts | 347° |
| 2026-04-21 21:11 | -26.58843 | 32.74849 | 8257 ft | 166 kts | 347° |
| 2026-04-21 21:12 | -26.57707 | 32.74548 | 8257 ft | 166 kts | 347° |
| 2026-04-21 21:12 | -26.56582 | 32.74250 | 8257 ft | 166 kts | 347° |
| 2026-04-21 21:12 | -26.55432 | 32.73945 | 8257 ft | 166 kts | 347° |
| 2026-04-21 21:12 | -26.54295 | 32.73644 | 8257 ft | 166 kts | 347° |
| 2026-04-21 21:13 | -26.53175 | 32.73347 | 8257 ft | 166 kts | 347° |
| 2026-04-21 21:13 | -26.52052 | 32.73050 | 8257 ft | 166 kts | 347° |
| 2026-04-21 21:13 | -26.50913 | 32.72749 | 8257 ft | 166 kts | 347° |
| 2026-04-21 21:13 | -26.49793 | 32.72452 | 8257 ft | 166 kts | 347° |
| 2026-04-21 21:14 | -26.48666 | 32.72154 | 8257 ft | 166 kts | 347° |
| 2026-04-21 21:14 | -26.47530 | 32.71853 | 8257 ft | 166 kts | 347° |
| 2026-04-21 21:14 | -26.46407 | 32.71556 | 8257 ft | 166 kts | 347° |
| 2026-04-21 21:14 | -26.45280 | 32.71258 | 8257 ft | 166 kts | 347° |
| 2026-04-21 21:15 | -26.44153 | 32.70961 | 8257 ft | 166 kts | 347° |
| 2026-04-21 21:15 | -26.43026 | 32.70663 | 8257 ft | 166 kts | 347° |
| 2026-04-21 21:15 | -26.41902 | 32.70366 | 8257 ft | 166 kts | 347° |
| 2026-04-21 21:15 | -26.40768 | 32.70066 | 8257 ft | 164 kts | 347° |
| 2026-04-21 21:16 | -26.39681 | 32.69779 | 8256 ft | 161 kts | 347° |
| 2026-04-21 21:16 | -26.38617 | 32.69498 | 8256 ft | 158 kts | 347° |
| 2026-04-21 21:16 | -26.37542 | 32.69214 | 8257 ft | 157 kts | 347° |
| 2026-04-21 21:16 | -26.36471 | 32.68931 | 8257 ft | 157 kts | 347° |
| 2026-04-21 21:17 | -26.35387 | 32.68645 | 8257 ft | 157 kts | 347° |
| 2026-04-21 21:17 | -26.34368 | 32.68376 | 8257 ft | 157 kts | 347° |
| 2026-04-21 21:17 | -26.33310 | 32.68097 | 8257 ft | 157 kts | 347° |
| 2026-04-21 21:17 | -26.32240 | 32.67814 | 8257 ft | 157 kts | 347° |
| 2026-04-21 21:18 | -26.31176 | 32.67534 | 8257 ft | 157 kts | 347° |
| 2026-04-21 21:18 | -26.30117 | 32.67255 | 8257 ft | 157 kts | 347° |
| 2026-04-21 21:18 | -26.29044 | 32.66972 | 8160 ft | 162 kts | 347° |
| 2026-04-21 21:18 | -26.27932 | 32.66679 | 8037 ft | 165 kts | 347° |
| 2026-04-21 21:19 | -26.26810 | 32.66385 | 7914 ft | 167 kts | 347° |
| 2026-04-21 21:19 | -26.25674 | 32.66085 | 7789 ft | 168 kts | 347° |
| 2026-04-21 21:19 | -26.24539 | 32.65786 | 7665 ft | 168 kts | 347° |
| 2026-04-21 21:19 | -26.23407 | 32.65488 | 7542 ft | 168 kts | 347° |
| 2026-04-21 21:20 | -26.22257 | 32.65185 | 7416 ft | 168 kts | 347° |
| 2026-04-21 21:20 | -26.21119 | 32.64845 | 7291 ft | 168 kts | 345° |
| 2026-04-21 21:20 | -26.20003 | 32.64491 | 7168 ft | 168 kts | 345° |
| 2026-04-21 21:20 | -26.18871 | 32.64131 | 7043 ft | 168 kts | 345° |
| 2026-04-21 21:21 | -26.17743 | 32.63773 | 6919 ft | 168 kts | 345° |
| 2026-04-21 21:21 | -26.16618 | 32.63417 | 6794 ft | 168 kts | 345° |
| 2026-04-21 21:21 | -26.15493 | 32.63063 | 6670 ft | 168 kts | 345° |
| 2026-04-21 21:21 | -26.14368 | 32.62709 | 6546 ft | 168 kts | 345° |
| 2026-04-21 21:22 | -26.13250 | 32.62359 | 6423 ft | 168 kts | 345° |
| 2026-04-21 21:22 | -26.12125 | 32.62007 | 6299 ft | 168 kts | 345° |
| 2026-04-21 21:22 | -26.10990 | 32.61654 | 6174 ft | 168 kts | 345° |
| 2026-04-21 21:22 | -26.09866 | 32.61311 | 6049 ft | 169 kts | 344° |
| 2026-04-21 21:23 | -26.08722 | 32.60990 | 5926 ft | 170 kts | 345° |
| 2026-04-21 21:23 | -26.07573 | 32.60670 | 5802 ft | 171 kts | 345° |
| 2026-04-21 21:23 | -26.06421 | 32.60353 | 5589 ft | 164 kts | 345° |
| 2026-04-21 21:23 | -26.05365 | 32.60068 | 5212 ft | 152 kts | 345° |
| 2026-04-21 21:24 | -26.04369 | 32.59805 | 4831 ft | 143 kts | 345° |
| 2026-04-21 21:24 | -26.03427 | 32.59563 | 4457 ft | 138 kts | 345° |
| 2026-04-21 21:24 | -26.02503 | 32.59330 | 4080 ft | 135 kts | 345° |
| 2026-04-21 21:24 | -26.01605 | 32.59110 | 3708 ft | 133 kts | 345° |
| 2026-04-21 21:25 | -26.00715 | 32.58894 | 3334 ft | 131 kts | 345° |
| 2026-04-21 21:25 | -25.99824 | 32.58683 | 2956 ft | 130 kts | 345° |
| 2026-04-21 21:25 | -25.98951 | 32.58476 | 2582 ft | 129 kts | 343° |
| 2026-04-21 21:25 | -25.98156 | 32.58143 | 2204 ft | 119 kts | 327° |
| 2026-04-21 21:26 | -25.97473 | 32.57671 | 1827 ft | 115 kts | 321° |
| 2026-04-21 21:26 | -25.96861 | 32.57198 | 1489 ft | 102 kts | 321° |
| 2026-04-21 21:26 | -25.96342 | 32.56790 | 1291 ft | 80 kts | 319° |
| 2026-04-21 21:26 | -25.95884 | 32.56477 | 1160 ft | 77 kts | 325° |
| 2026-04-21 21:27 | -25.95406 | 32.56197 | 1052 ft | 76 kts | 329° |
| 2026-04-21 21:27 | -25.94910 | 32.56010 | 983 ft | 75 kts | 343° |
| 2026-04-21 21:27 | -25.94363 | 32.56012 | 837 ft | 84 kts | 6° |
| 2026-04-21 21:27 | -25.93823 | 32.56215 | 629 ft | 81 kts | 19° |
| 2026-04-21 21:28 | -25.93325 | 32.56500 | 443 ft | 80 kts | 25° |
| 2026-04-21 21:28 | -25.92856 | 32.56789 | 270 ft | 75 kts | 26° |
| 2026-04-21 21:28 | -25.91985 | 32.57314 | 130 ft | 59 kts | 26° |
| 2026-04-21 21:29 | -25.91676 | 32.57505 | 130 ft | 44 kts | 32° |
| 2026-04-21 21:29 | -25.91439 | 32.57651 | 133 ft | 37 kts | 27° |
| 2026-04-21 21:29 | -25.91220 | 32.57785 | 136 ft | 33 kts | 29° |
| 2026-04-21 21:29 | -25.91051 | 32.57888 | 138 ft | 21 kts | 30° |
| 2026-04-21 21:30 | -25.91033 | 32.57974 | 139 ft | 12 kts | 158° |
| 2026-04-21 21:30 | -25.91108 | 32.57997 | 139 ft | 10 kts | 162° |
| 2026-04-21 21:30 | -25.91128 | 32.58004 | 139 ft | 0 kts | 164° |
| 2026-04-21 21:31 | -25.91148 | 32.58010 | 139 ft | 9 kts | 167° |
| 2026-04-21 21:31 | -25.91269 | 32.57964 | 138 ft | 27 kts | 209° |
| 2026-04-21 21:32 | -25.91470 | 32.57840 | 136 ft | 38 kts | 209° |
| 2026-04-21 21:32 | -25.91716 | 32.57690 | 133 ft | 40 kts | 209° |
| 2026-04-21 21:32 | -25.91899 | 32.57578 | 133 ft | 19 kts | 209° |
| 2026-04-21 21:32 | -25.91990 | 32.57522 | 133 ft | 11 kts | 207° |
| 2026-04-21 21:33 | -25.92064 | 32.57480 | 133 ft | 15 kts | 208° |
| 2026-04-21 21:33 | -25.92201 | 32.57396 | 133 ft | 28 kts | 208° |
| 2026-04-21 21:33 | -25.92376 | 32.57288 | 134 ft | 26 kts | 211° |
| 2026-04-21 21:33 | -25.92501 | 32.57225 | 135 ft | 8 kts | 156° |
| 2026-04-21 21:34 | -25.92524 | 32.57258 | 136 ft | 7 kts | 117° |
| 2026-04-21 21:34 | -25.92536 | 32.57310 | 137 ft | 2 kts | 25° |
| 2026-04-21 21:34 | -25.92535 | 32.57310 | 137 ft | 0 kts | 7° |